Aeroporto :
LOGIN :

Iscrizione | Disclaimer

   EN    FR    IT 

 










Sommario :    VFR   VFR Marginale   IFR   IFR Intensivo   IFR Molto Intensivo
Visibilità : 
Base nubi : 
>= 8 km
>= 3000ft
5 / 8 km
1000 / 3000 ft
1500m / 5 km
500 / 1000 ft
800 / 1500m
200 / 500 ft
< 800m
< 200 ft
Simboli :   Temporali  Nebbia  Neve Forte  Precipitazioni Forti  Vento > 20 kt
SIGMETs :   Varie  Temporali  Ghiacco  Turbolenza  Onda orograficha  Ceneri Vulcaniche






- Altitudine del aeroporto : 74 ft
- Codice IATA : NDZ


ETMN - Cuxhaven Nordholz Sea AB

ULTIMO METAR :
  • 202120Z 29021KT 9999 -RADZ SCT030 BKN050 06/03 Q1004 RERA BLU

METARs OBSOLETI :
  • 202020Z 22019G36KT 8000 RA SCT008 BKN015 07/06 Q1001 WHT
  • 201946Z 21014G26KT 9999 FEW012 BKN015 07/06 Q1001 WHT FCST CANCEL
  • 201920Z 21015G26KT 9999 FEW014 BKN018 07/05 Q1001 WHT WHT BECMG GRN

TAF AMD TAF ETMN
Valido dal 20 a 18 ore il 21 a 03 ore UTC


201914Z 2018/2103 19015G28KT 9999 NSW SCT015 BKN025
BECMG 2018/2020 20020G35KT 5000 RADZ SCT005 BKN007
TEMPO 2019/2021 20025G45KT 3000 DZRA BKN004
BECMG 2020/2022 29025G45KT 9999 NSW SCT007 BKN025
TEMPO 2021/2022 30025G50KT 5000 SHRA SCT006 BKN018CB CANCEL 2000



MetMap, La meteo Aeronautica in un colpo d'occhio ! - Copyright ORBIFLY Dicembre 2007 - Disclaimer

ORBIFLY MET'MAP TEAM :

Programmazione e sviluppo : Alexandra Zaïnal
Concezione : Baudouin d'Aumeries
Aiuto per la programmazione : Marc-Olivier Méhu
Supporto tecnico e logistico : Manuel Goepfert
Aiuto per la traduzione : Arnaldo La Scala

Contatto : metmap@orbifly.com




FONTI E CREDITI :

   NOAA